Time;durP1;ratioP1;P1;durP2;ratioP2;P2;SDS_P1;SDS_P2;PMS_P1;PMS_P2;Temp;Humidity;BMP_temperature;BMP_pressure;BME280_temperature;BME280_humidity;BME280_pressure;Samples;Min_cycle;Max_cycle;Signal;HPM_P1;HPM_P2
2022/03/25 00:02:03;;;;;;;18.92;8.90;;;2.40;99.90;;;;;;5125894;28;20518;-75
2022/03/25 00:04:34;;;;;;;16.90;8.85;;;2.00;99.90;;;;;;5126083;29;20020;-73
2022/03/25 00:07:05;;;;;;;19.13;9.35;;;2.50;99.90;;;;;;5124959;28;20102;-73
2022/03/25 00:09:36;;;;;;;19.08;10.10;;;2.30;99.90;;;;;;5126153;29;20049;-73
2022/03/25 00:12:07;;;;;;;20.67;10.43;;;2.60;99.90;;;;;;5126058;29;20036;-74
2022/03/25 00:14:38;;;;;;;17.85;10.23;;;2.70;99.90;;;;;;5125830;28;20051;-74
2022/03/25 00:17:09;;;;;;;20.58;9.25;;;2.70;99.90;;;;;;5126075;28;20070;-73
2022/03/25 00:19:39;;;;;;;19.90;9.50;;;3.00;99.90;;;;;;5124707;28;20119;-73
2022/03/25 00:22:10;;;;;;;17.48;8.55;;;3.20;99.90;;;;;;5125803;29;20024;-73
2022/03/25 00:24:41;;;;;;;22.52;9.80;;;2.90;99.90;;;;;;5124806;29;20446;-75
2022/03/25 00:27:12;;;;;;;15.77;8.65;;;3.20;99.90;;;;;;5125845;29;20046;-73
2022/03/25 00:29:43;;;;;;;19.08;8.90;;;3.20;99.90;;;;;;5125525;28;20035;-73
2022/03/25 00:32:16;;;;;;;17.20;9.82;;;3.40;99.90;;;;;;5124599;29;20031;-73
2022/03/25 00:34:47;;;;;;;18.80;9.40;;;3.00;99.90;;;;;;5125924;29;20059;-73
2022/03/25 00:37:18;;;;;;;22.15;10.13;;;3.00;99.90;;;;;;5125894;29;20506;-75
2022/03/25 00:39:49;;;;;;;25.08;9.75;;;3.20;99.90;;;;;;5124666;29;20058;-75
2022/03/25 00:42:20;;;;;;;19.25;9.02;;;3.20;99.90;;;;;;5125838;29;20066;-74
2022/03/25 00:44:51;;;;;;;23.35;10.20;;;3.20;99.90;;;;;;5124263;29;20015;-74
2022/03/25 00:47:23;;;;;;;20.65;9.38;;;3.20;99.90;;;;;;5125677;28;20046;-75
2022/03/25 00:49:54;;;;;;;19.65;8.10;;;3.00;99.90;;;;;;5125871;29;20352;-75
2022/03/25 00:52:25;;;;;;;20.15;9.07;;;3.50;99.90;;;;;;5124408;29;20031;-73
2022/03/25 02:53:34;;;;;;;20.15;11.85;;;1.60;99.90;;;;;;4936948;27;10457653;-73
2022/03/25 02:56:09;;;;;;;31.65;12.73;;;0.90;99.90;;;;;;5287514;28;20090;-73
2022/03/25 02:58:49;;;;;;;23.30;11.88;;;0.50;99.90;;;;;;5287365;28;20047;-73
2022/03/25 03:01:23;;;;;;;;;;;1.00;99.90;;;;;;5253341;28;20040;-74
2022/03/25 03:03:54;;;;;;;24.63;12.50;;;0.80;99.90;;;;;;5266069;28;19904;-71
2022/03/25 03:06:25;;;;;;;23.30;12.25;;;1.10;99.90;;;;;;5265947;28;20076;-73
2022/03/25 03:08:56;;;;;;;26.42;12.45;;;1.00;99.90;;;;;;5247796;28;20044;-72
2022/03/25 03:11:28;;;;;;;28.17;13.07;;;0.80;99.90;;;;;;5265753;28;20044;-72
2022/03/25 03:13:59;;;;;;;24.15;12.85;;;0.90;99.90;;;;;;5265735;28;20070;-71
2022/03/25 03:16:30;;;;;;;24.88;12.60;;;1.10;99.90;;;;;;5247681;28;20024;-72
2022/03/25 03:19:01;;;;;;;27.08;14.80;;;0.70;99.90;;;;;;5265772;28;20048;-72
2022/03/25 03:21:32;;;;;;;24.35;13.20;;;1.00;99.90;;;;;;5247199;28;20059;-75
2022/03/25 03:24:04;;;;;;;29.55;14.00;;;0.40;99.90;;;;;;5265580;28;20036;-74
2022/03/25 03:26:35;;;;;;;26.42;13.65;;;0.80;99.90;;;;;;5265600;28;20008;-74
2022/03/25 03:29:06;;;;;;;25.42;13.23;;;0.50;99.90;;;;;;5265419;28;20032;-75
2022/03/25 03:31:37;;;;;;;21.65;13.02;;;0.50;99.90;;;;;;5265495;28;20035;-72
2022/03/25 03:34:08;;;;;;;24.35;13.93;;;0.70;99.90;;;;;;5247192;28;20479;-72
2022/03/25 03:36:39;;;;;;;24.05;12.73;;;0.80;99.90;;;;;;5265518;28;20066;-72
2022/03/25 03:39:11;;;;;;;25.88;13.07;;;0.80;99.90;;;;;;5265620;28;20047;-72
2022/03/25 03:41:42;;;;;;;23.77;12.70;;;0.90;99.90;;;;;;5265278;28;20522;-72
2022/03/25 03:44:13;;;;;;;25.73;11.70;;;1.00;99.90;;;;;;5265002;28;20048;-72
2022/03/25 03:46:43;;;;;;;21.58;11.85;;;0.70;99.90;;;;;;5247000;28;20107;-72
2022/03/25 03:49:15;;;;;;;21.15;13.05;;;0.90;99.90;;;;;;5265304;28;20104;-72
2022/03/25 03:51:46;;;;;;;26.73;11.88;;;1.00;99.90;;;;;;5264818;28;20020;-72
2022/03/25 03:54:17;;;;;;;21.90;12.98;;;0.80;99.90;;;;;;5251770;28;20032;-74
2022/03/25 03:56:48;;;;;;;27.02;12.27;;;0.30;99.90;;;;;;5251097;28;20486;-74
2022/03/25 03:59:19;;;;;;;25.52;12.38;;;0.70;99.90;;;;;;5250991;28;20387;-74
2022/03/25 04:01:50;;;;;;;26.02;11.48;;;0.70;99.90;;;;;;5250955;28;20119;-74
2022/03/25 04:04:21;;;;;;;25.20;12.20;;;0.30;99.90;;;;;;5250913;28;20103;-73
2022/03/25 04:06:51;;;;;;;23.38;12.68;;;0.40;99.90;;;;;;5250990;28;20033;-74
2022/03/25 04:09:22;;;;;;;25.88;13.30;;;0.30;99.90;;;;;;5250945;28;20082;-74
2022/03/25 04:11:54;;;;;;;24.63;13.32;;;0.40;99.90;;;;;;5250711;28;20064;-74
2022/03/25 04:14:24;;;;;;;24.48;12.65;;;0.30;99.90;;;;;;5250372;28;20062;-73
2022/03/25 04:16:55;;;;;;;22.83;13.13;;;0.40;99.90;;;;;;5232587;28;20033;-73
2022/03/25 04:19:26;;;;;;;27.73;13.05;;;0.40;99.90;;;;;;5250368;28;20020;-74
2022/03/25 04:21:57;;;;;;;26.23;13.25;;;0.40;99.90;;;;;;5250554;28;20040;-74
2022/03/25 04:24:27;;;;;;;30.33;14.38;;;0.30;99.90;;;;;;5250656;28;20059;-73
2022/03/25 04:26:58;;;;;;;21.38;13.57;;;0.20;99.90;;;;;;5250822;28;20345;-74
2022/03/25 04:29:29;;;;;;;24.27;13.18;;;0.40;99.90;;;;;;5250602;28;20017;-73
2022/03/25 04:32:00;;;;;;;23.02;13.43;;;0.30;99.90;;;;;;5250619;28;20028;-74
2022/03/25 04:34:31;;;;;;;29.77;14.32;;;0.20;99.90;;;;;;5250412;28;20400;-73
2022/03/25 04:37:02;;;;;;;25.75;13.88;;;0.30;99.90;;;;;;5250426;28;20379;-74
2022/03/25 04:39:32;;;;;;;30.73;14.18;;;0.30;99.90;;;;;;5250618;28;20028;-74
2022/03/25 04:42:03;;;;;;;24.00;13.77;;;0.40;99.90;;;;;;5250282;28;20033;-74
2022/03/25 04:44:35;;;;;;;28.48;13.90;;;0.40;99.90;;;;;;5250075;28;20737;-73
2022/03/25 04:47:05;;;;;;;27.67;15.23;;;0.30;99.90;;;;;;5250198;28;20067;-73
2022/03/25 04:49:36;;;;;;;27.15;15.15;;;0.50;99.90;;;;;;5250266;28;20056;-74
2022/03/25 04:52:07;;;;;;;26.30;14.02;;;0.30;99.90;;;;;;5232001;28;20053;-74
2022/03/25 04:54:38;;;;;;;24.65;14.13;;;0.40;99.90;;;;;;5249850;28;20032;-73
2022/03/25 04:57:09;;;;;;;22.60;13.85;;;0.60;99.90;;;;;;5249893;28;20119;-74
2022/03/25 04:59:40;;;;;;;23.00;13.82;;;0.60;99.90;;;;;;5249967;28;20025;-74
2022/03/25 05:02:11;;;;;;;23.88;14.00;;;0.50;99.90;;;;;;5246548;28;20064;-73
2022/03/25 05:04:42;;;;;;;22.90;13.63;;;0.70;99.90;;;;;;5248810;28;20016;-74
2022/03/25 05:07:18;;;;;;;25.70;12.88;;;1.00;99.90;;;;;;5245883;28;20044;-73
2022/03/25 05:09:49;;;;;;;22.75;12.75;;;1.20;99.90;;;;;;5247234;28;20044;-74
2022/03/25 05:12:20;;;;;;;25.15;13.20;;;0.90;99.90;;;;;;5249470;28;20024;-74
2022/03/25 05:14:51;;;;;;;27.63;13.30;;;1.20;99.90;;;;;;5249574;28;20398;-73
2022/03/25 05:17:22;;;;;;;25.80;12.30;;;1.20;99.90;;;;;;5249481;28;20024;-73
2022/03/25 05:19:54;;;;;;;27.88;12.30;;;1.70;99.90;;;;;;5249476;28;20028;-73
2022/03/25 05:22:25;;;;;;;24.13;13.02;;;1.70;99.90;;;;;;5248919;28;20344;-74
2022/03/25 05:24:56;;;;;;;23.02;12.35;;;2.10;99.90;;;;;;5249349;28;20017;-74
2022/03/25 05:27:27;;;;;;;28.08;11.80;;;2.00;99.90;;;;;;5244848;28;20047;-74
2022/03/25 05:29:58;;;;;;;26.13;12.63;;;2.40;99.90;;;;;;5065541;28;20116;-73
2022/03/25 05:32:29;;;;;;;21.60;12.35;;;2.60;99.90;;;;;;5185388;28;20014;-74
2022/03/25 05:35:00;;;;;;;23.38;11.85;;;2.80;99.90;;;;;;5187116;28;20022;-74
2022/03/25 05:37:31;;;;;;;23.67;11.82;;;3.00;99.90;;;;;;5186416;28;20030;-74
2022/03/25 05:40:02;;;;;;;24.17;11.13;;;3.40;99.90;;;;;;5186644;28;20064;-72
2022/03/25 05:42:34;;;;;;;22.13;12.23;;;3.40;99.90;;;;;;5185910;28;20045;-74
2022/03/25 05:45:07;;;;;;;18.35;10.40;;;4.00;99.90;;;;;;5184178;28;20097;-74
2022/03/25 05:47:40;;;;;;;24.63;11.90;;;4.20;99.90;;;;;;5186506;28;20030;-71
2022/03/25 05:50:11;;;;;;;24.67;12.45;;;4.30;99.90;;;;;;5187065;28;20038;-72
2022/03/25 05:52:42;;;;;;;31.42;17.63;;;4.90;99.90;;;;;;5186767;28;20132;-71
2022/03/25 05:55:14;;;;;;;39.17;20.88;;;5.30;99.90;;;;;;5186978;28;20541;-71
2022/03/25 05:57:45;;;;;;;41.15;22.70;;;5.60;99.90;;;;;;5186859;28;20362;-72
2022/03/25 06:00:17;;;;;;;37.60;19.63;;;6.60;99.90;;;;;;5186784;28;20377;-73
2022/03/25 06:02:48;;;;;;;34.05;16.60;;;7.30;99.90;;;;;;5186900;28;20042;-72
2022/03/25 06:05:19;;;;;;;22.88;11.65;;;7.60;99.90;;;;;;5187041;28;20444;-73
2022/03/25 06:07:50;;;;;;;19.85;9.15;;;8.30;99.90;;;;;;5186784;28;20101;-73
2022/03/25 06:10:21;;;;;;;23.73;9.32;;;8.70;99.90;;;;;;5186838;28;20057;-74
2022/03/25 06:12:52;;;;;;;25.60;9.93;;;8.90;99.90;;;;;;5186682;28;20486;-74
2022/03/25 06:15:23;;;;;;;23.17;8.75;;;8.90;99.90;;;;;;5186222;28;20050;-72
2022/03/25 06:17:53;;;;;;;17.35;8.95;;;9.00;99.90;;;;;;5186604;28;20030;-72
2022/03/25 06:20:24;;;;;;;17.80;8.15;;;9.10;99.90;;;;;;5186467;28;20026;-73
2022/03/25 06:22:57;;;;;;;21.95;8.77;;;9.20;99.90;;;;;;5186369;28;20033;-73
2022/03/25 06:25:28;;;;;;;18.48;8.32;;;9.30;99.90;;;;;;5180010;28;20038;-74
2022/03/25 06:28:01;;;;;;;20.45;9.00;;;9.30;99.90;;;;;;5179547;28;20033;-74
2022/03/25 06:30:35;;;;;;;20.42;8.75;;;9.40;99.90;;;;;;5181280;28;20026;-73
2022/03/25 06:33:09;;;;;;;23.13;9.60;;;9.60;99.90;;;;;;5179845;28;20109;-73
2022/03/25 06:35:40;;;;;;;18.05;9.40;;;9.60;99.90;;;;;;5181837;28;20042;-75
2022/03/25 06:38:11;;;;;;;19.52;9.45;;;9.60;99.90;;;;;;5178831;28;20033;-74
2022/03/25 06:40:41;;;;;;;20.50;8.70;;;9.70;99.90;;;;;;5181711;28;20595;-74
2022/03/25 06:43:13;;;;;;;22.83;8.90;;;9.70;99.90;;;;;;5181876;28;20037;-75
2022/03/25 06:45:44;;;;;;;19.52;8.82;;;9.70;99.90;;;;;;5181853;28;20026;-74
2022/03/25 06:48:14;;;;;;;20.67;9.48;;;9.90;99.90;;;;;;5163536;28;20036;-75
2022/03/25 06:50:47;;;;;;;24.10;9.77;;;9.80;99.90;;;;;;5179081;28;20485;-73
2022/03/25 06:53:18;;;;;;;21.98;9.65;;;9.90;99.90;;;;;;5181027;28;20580;-73
2022/03/25 06:55:49;;;;;;;22.17;9.32;;;10.00;99.90;;;;;;5181587;28;20036;-75
2022/03/25 06:58:20;;;;;;;19.30;9.40;;;10.20;99.90;;;;;;5181011;28;20034;-74
2022/03/25 07:00:54;;;;;;;22.48;9.35;;;10.10;99.90;;;;;;5182089;28;20038;-75
2022/03/25 07:03:25;;;;;;;21.70;9.90;;;10.00;99.90;;;;;;5181225;28;20524;-75
2022/03/25 07:06:00;;;;;;;22.92;10.02;;;10.30;99.90;;;;;;5181972;28;20480;-75
2022/03/25 07:08:31;;;;;;;18.60;9.15;;;10.40;99.90;;;;;;5181240;28;20041;-76
2022/03/25 07:11:02;;;;;;;24.70;9.05;;;10.40;99.90;;;;;;5181929;28;20026;-75
2022/03/25 07:13:33;;;;;;;15.80;8.43;;;10.50;99.90;;;;;;5181858;28;20501;-78
2022/03/25 07:16:04;;;;;;;18.75;9.27;;;10.70;99.90;;;;;;5181558;28;20347;-75
2022/03/25 07:18:35;;;;;;;21.00;8.80;;;10.70;99.90;;;;;;5179103;28;20026;-75
2022/03/25 07:21:06;;;;;;;25.25;9.82;;;10.90;99.90;;;;;;5180523;28;20036;-75
2022/03/25 07:23:37;;;;;;;15.07;7.70;;;11.00;99.90;;;;;;5181242;28;20038;-75
2022/03/25 07:26:08;;;;;;;16.58;8.73;;;10.80;99.90;;;;;;5183129;28;20373;-77
2022/03/25 07:28:38;;;;;;;15.75;7.70;;;11.10;99.90;;;;;;5185855;28;20058;-76
2022/03/25 07:31:10;;;;;;;19.50;9.05;;;11.20;99.90;;;;;;5186269;28;20040;-76
2022/03/25 07:33:42;;;;;;;14.52;7.97;;;11.30;99.90;;;;;;5186823;28;20052;-76
2022/03/25 07:36:13;;;;;;;12.57;6.93;;;11.30;99.90;;;;;;5186717;28;20026;-76
2022/03/25 07:38:44;;;;;;;17.90;6.90;;;11.30;99.90;;;;;;5187743;28;20029;-76
2022/03/25 07:41:15;;;;;;;18.45;7.82;;;11.40;99.90;;;;;;5189478;28;20116;-75
2022/03/25 07:43:45;;;;;;;17.58;6.70;;;11.50;99.90;;;;;;5189656;28;20050;-77
2022/03/25 07:46:17;;;;;;;17.00;7.85;;;11.40;99.90;;;;;;5172020;28;20061;-78
2022/03/25 07:48:47;;;;;;;17.75;6.90;;;11.30;99.90;;;;;;5189546;28;20469;-77
2022/03/25 07:51:18;;;;;;;12.70;7.78;;;11.30;99.90;;;;;;5189189;28;20061;-77
2022/03/25 07:53:49;;;;;;;17.33;8.13;;;11.30;99.90;;;;;;5189516;28;20611;-77
2022/03/25 07:56:20;;;;;;;16.02;7.85;;;11.30;99.90;;;;;;5171884;28;20388;-76
2022/03/25 07:58:51;;;;;;;14.43;6.85;;;11.40;99.90;;;;;;5188549;28;20101;-76
2022/03/25 08:01:23;;;;;;;14.00;8.05;;;11.40;99.90;;;;;;5151260;28;20046;-76
2022/03/25 08:03:55;;;;;;;16.55;8.35;;;11.40;99.90;;;;;;5178512;28;20549;-76
2022/03/25 08:06:26;;;;;;;17.45;7.55;;;11.70;99.90;;;;;;5186092;28;20053;-75
2022/03/25 08:08:59;;;;;;;21.52;8.32;;;11.60;99.90;;;;;;5186294;28;20053;-76
2022/03/25 08:11:29;;;;;;;19.13;8.40;;;11.80;99.90;;;;;;5186871;28;20029;-75
2022/03/25 08:14:00;;;;;;;16.65;7.82;;;11.80;99.90;;;;;;5185056;28;20440;-76
2022/03/25 08:16:31;;;;;;;14.18;7.60;;;12.00;99.90;;;;;;5186234;28;20068;-76
2022/03/25 08:19:02;;;;;;;17.50;8.60;;;11.70;99.90;;;;;;5183862;28;20168;-76
2022/03/25 08:21:33;;;;;;;18.85;8.65;;;11.60;99.90;;;;;;5185964;28;20501;-76
2022/03/25 08:29:43;;;;;;;14.65;8.18;;;11.60;99.90;;;;;;5185525;28;20176;-76
2022/03/25 08:32:14;;;;;;;15.57;8.00;;;12.00;99.90;;;;;;5168751;28;20491;-77
2022/03/25 08:34:44;;;;;;;15.00;9.15;;;11.90;99.90;;;;;;5168030;28;20489;-76
2022/03/25 08:37:15;;;;;;;16.13;8.35;;;12.40;99.90;;;;;;5184732;28;20507;-75
2022/03/25 08:39:46;;;;;;;17.23;8.88;;;12.50;99.90;;;;;;5185500;28;20026;-76
2022/03/25 08:42:17;;;;;;;19.30;8.65;;;12.10;99.90;;;;;;5185828;28;20042;-76
2022/03/25 08:44:48;;;;;;;14.15;8.20;;;12.20;99.90;;;;;;5185355;28;20381;-76
2022/03/25 08:47:18;;;;;;;19.05;9.65;;;12.30;99.90;;;;;;5185320;28;20103;-76
2022/03/25 08:49:49;;;;;;;14.05;8.73;;;12.10;99.90;;;;;;5168141;28;20029;-76
2022/03/25 08:52:23;;;;;;;15.57;8.88;;;12.50;99.90;;;;;;5185709;28;20088;-76
2022/03/25 08:54:54;;;;;;;17.90;8.65;;;12.30;99.90;;;;;;5184476;28;20022;-76
2022/03/25 08:57:25;;;;;;;13.40;7.82;;;12.40;99.90;;;;;;5168323;28;20060;-76
2022/03/25 08:59:56;;;;;;;12.38;7.90;;;12.40;99.90;;;;;;5185506;28;20026;-76
2022/03/25 09:02:27;;;;;;;16.52;8.13;;;12.80;99.90;;;;;;5185862;28;20053;-76
2022/03/25 09:04:58;;;;;;;14.57;8.45;;;12.50;99.90;;;;;;5182157;28;20496;-76
2022/03/25 09:07:29;;;;;;;18.67;8.95;;;12.70;99.90;;;;;;5185808;28;20389;-76
2022/03/25 09:10:00;;;;;;;14.60;8.40;;;12.70;99.90;;;;;;5186360;28;20034;-76
2022/03/25 09:12:33;;;;;;;15.02;8.05;;;12.50;99.90;;;;;;5184847;28;20026;-78
2022/03/25 09:15:05;;;;;;;14.18;7.55;;;12.70;94.20;;;;;;5185948;28;20037;-76
2022/03/25 09:17:37;;;;;;;17.27;6.80;;;13.10;99.90;;;;;;5185823;28;20023;-77
2022/03/25 09:20:09;;;;;;;15.05;7.53;;;13.30;99.90;;;;;;5183193;28;20385;-76
2022/03/25 09:22:40;;;;;;;16.35;7.70;;;13.00;88.20;;;;;;5185910;28;20049;-76
2022/03/25 09:25:13;;;;;;;16.00;7.38;;;13.10;98.20;;;;;;5183680;28;20053;-76
2022/03/25 09:27:43;;;;;;;15.25;7.45;;;13.00;99.90;;;;;;5185452;28;20030;-77
2022/03/25 09:30:14;;;;;;;13.07;7.43;;;13.70;92.00;;;;;;5185879;28;20022;-76
2022/03/25 09:32:45;;;;;;;11.38;6.65;;;13.40;80.10;;;;;;5184717;28;20109;-76
2022/03/25 09:35:16;;;;;;;12.13;7.35;;;13.20;74.50;;;;;;5185560;28;20095;-76
2022/03/25 09:37:49;;;;;;;14.13;7.10;;;13.40;81.50;;;;;;5185106;28;20117;-76
2022/03/25 09:40:25;;;;;;;9.60;6.25;;;13.80;79.40;;;;;;5185905;28;20095;-76
2022/03/25 09:42:57;;;;;;;14.88;7.38;;;13.50;76.80;;;;;;5182483;28;20029;-76
2022/03/25 09:45:30;;;;;;;18.50;7.72;;;13.60;77.00;;;;;;5185276;28;20101;-76
2022/03/25 09:48:01;;;;;;;14.50;7.15;;;13.90;75.40;;;;;;5185295;28;20433;-77
2022/03/25 09:50:39;;;;;;;10.43;6.22;;;13.60;75.00;;;;;;5181108;28;20044;-76
2022/03/25 09:53:10;;;;;;;12.07;6.45;;;14.20;76.60;;;;;;5179519;28;20058;-76
2022/03/25 09:55:44;;;;;;;14.77;7.00;;;13.50;71.20;;;;;;5185206;28;20109;-76
2022/03/25 09:58:18;;;;;;;11.82;6.72;;;13.80;74.20;;;;;;5185641;28;20085;-76
2022/03/25 10:00:51;;;;;;;12.43;6.60;;;14.00;73.60;;;;;;5185098;28;20049;-76
2022/03/25 10:03:32;;;;;;;13.02;6.57;;;14.00;74.30;;;;;;5184438;28;20061;-74
2022/03/25 10:06:10;;;;;;;13.95;7.57;;;13.80;70.10;;;;;;5185183;28;20053;-76
2022/03/25 10:08:43;;;;;;;10.40;6.75;;;14.10;72.90;;;;;;5183453;28;20021;-76
2022/03/25 10:11:28;;;;;;;11.70;7.25;;;13.80;69.00;;;;;;5166591;28;20034;-76
2022/03/25 10:14:18;;;;;;;12.15;6.28;;;13.40;70.00;;;;;;5184327;28;20037;-76
2022/03/25 10:16:55;;;;;;;13.52;7.80;;;13.80;68.30;;;;;;5184120;28;20042;-76
2022/03/25 10:19:28;;;;;;;13.75;6.72;;;13.70;69.40;;;;;;5183747;28;20030;-77
2022/03/25 10:22:03;;;;;;;13.95;7.22;;;14.10;68.30;;;;;;5150857;28;20038;-76
2022/03/25 10:24:46;;;;;;;14.68;8.00;;;13.90;65.70;;;;;;5184741;28;20018;-76
2022/03/25 10:27:25;;;;;;;11.90;6.28;;;14.00;68.00;;;;;;5183638;28;20054;-76
2022/03/25 10:29:56;;;;;;;14.85;7.45;;;13.50;68.20;;;;;;5184896;28;20018;-76
2022/03/25 10:32:27;;;;;;;10.98;6.32;;;14.20;66.20;;;;;;5184879;28;20050;-76
2022/03/25 10:35:10;;;;;;;11.88;7.60;;;13.90;66.50;;;;;;5184638;28;20037;-76
2022/03/25 10:37:58;;;;;;;11.75;6.30;;;14.20;70.10;;;;;;5182609;28;20057;-77
2022/03/25 10:40:29;;;;;;;13.35;7.07;;;14.00;65.90;;;;;;5183669;28;20026;-76
2022/03/25 10:43:06;;;;;;;14.00;7.32;;;14.10;67.90;;;;;;5183934;28;20479;-79
2022/03/25 10:45:41;;;;;;;11.93;6.57;;;14.10;69.00;;;;;;5182535;28;20030;-77
2022/03/25 10:48:22;;;;;;;10.77;6.53;;;14.40;67.40;;;;;;5182719;28;20021;-78
2022/03/25 10:51:05;;;;;;;10.55;6.07;;;14.50;66.00;;;;;;5166621;28;20100;-77
2022/03/25 10:53:38;;;;;;;15.82;7.50;;;14.40;64.10;;;;;;5180486;28;20041;-79
2022/03/25 10:56:12;;;;;;;10.88;6.20;;;14.20;63.50;;;;;;5183424;28;20041;-79
2022/03/25 10:58:56;;;;;;;12.43;6.90;;;14.00;64.20;;;;;;5181264;28;20057;-79
2022/03/25 11:01:27;;;;;;;10.60;5.88;;;14.10;63.50;;;;;;5183976;28;20085;-79
2022/03/25 11:03:59;;;;;;;10.23;6.15;;;14.10;60.70;;;;;;5181097;28;20026;-78
2022/03/25 11:06:32;;;;;;;11.68;6.85;;;14.10;61.90;;;;;;5188539;28;20034;-81
2022/03/25 11:09:02;;;;;;;16.58;6.65;;;14.10;62.70;;;;;;5188480;28;20770;-79
2022/03/25 11:11:34;;;;;;;11.27;6.47;;;13.90;60.30;;;;;;5188230;28;20072;-76
2022/03/25 11:14:05;;;;;;;15.75;6.50;;;15.00;64.80;;;;;;5188210;28;20076;-76
2022/03/25 11:16:40;;;;;;;14.80;6.78;;;14.40;63.40;;;;;;5188779;28;20029;-77
2022/03/25 11:19:12;;;;;;;12.45;7.35;;;13.80;61.60;;;;;;5169431;28;20029;-79
2022/03/25 11:21:45;;;;;;;10.90;6.57;;;14.40;62.30;;;;;;5185187;28;20397;-79
2022/03/25 11:24:22;;;;;;;11.80;6.78;;;14.50;63.60;;;;;;5188202;28;20434;-77
2022/03/25 11:26:54;;;;;;;11.95;6.78;;;14.40;64.40;;;;;;5188256;28;20057;-78
2022/03/25 11:29:27;;;;;;;13.55;6.95;;;14.70;62.90;;;;;;5186973;28;20084;-77
2022/03/25 11:32:11;;;;;;;10.52;6.63;;;14.80;57.90;;;;;;5187570;28;20038;-78
2022/03/25 11:34:54;;;;;;;10.68;5.88;;;14.90;63.80;;;;;;5168930;28;20113;-77
2022/03/25 11:37:29;;;;;;;14.93;6.00;;;14.90;61.70;;;;;;5183076;28;20029;-77
2022/03/25 11:40:18;;;;;;;12.55;6.43;;;15.50;62.90;;;;;;5184660;28;20033;-77
2022/03/25 11:42:51;;;;;;;11.18;6.55;;;15.10;59.40;;;;;;5182699;28;20030;-77
2022/03/25 11:45:22;;;;;;;8.40;5.25;;;14.40;60.00;;;;;;5187650;28;20018;-77
2022/03/25 11:48:02;;;;;;;10.75;6.25;;;15.00;59.80;;;;;;5188716;28;20036;-78
2022/03/25 11:50:38;;;;;;;13.82;6.22;;;14.50;56.90;;;;;;5192823;28;20038;-78
2022/03/25 11:53:12;;;;;;;15.45;6.70;;;14.00;55.20;;;;;;5187504;28;20128;-78
2022/03/25 11:55:59;;;;;;;15.30;6.82;;;14.60;58.20;;;;;;5188135;28;20036;-79
2022/03/25 11:59:02;;;;;;;9.50;6.25;;;15.60;59.40;;;;;;5187493;28;20490;-78
2022/03/25 12:01:33;;;;;;;10.90;6.15;;;15.30;58.20;;;;;;5164658;28;20057;-78
2022/03/25 12:04:04;;;;;;;13.07;8.10;;;14.80;57.40;;;;;;5187934;28;20022;-79
2022/03/25 12:07:11;;;;;;;10.02;6.30;;;15.20;57.90;;;;;;5166654;28;20064;-78
2022/03/25 12:09:42;;;;;;;9.07;6.63;;;14.20;56.10;;;;;;5092800;29;20127;-78
2022/03/25 12:12:13;;;;;;;9.43;6.20;;;14.70;59.60;;;;;;5173555;28;20125;-78
2022/03/25 12:15:14;;;;;;;14.15;6.65;;;14.70;54.60;;;;;;5186176;28;20087;-78
2022/03/25 12:17:44;;;;;;;;;;;14.60;59.30;;;;;;5166073;28;20033;-78
2022/03/25 12:20:41;;;;;;;17.20;6.65;;;14.70;57.90;;;;;;5187381;28;19917;-78
2022/03/25 12:23:12;;;;;;;11.63;6.93;;;15.10;56.60;;;;;;5186272;28;20034;-78
2022/03/25 12:25:44;;;;;;;11.90;6.35;;;15.30;59.10;;;;;;5185963;28;20037;-78
2022/03/25 12:28:23;;;;;;;10.35;7.03;;;15.70;57.90;;;;;;5187273;28;20076;-78
2022/03/25 12:30:55;;;;;;;13.95;7.05;;;15.60;57.50;;;;;;5187056;28;20026;-77
2022/03/25 12:33:26;;;;;;;13.13;8.63;;;15.30;57.90;;;;;;5187125;28;20034;-78
2022/03/25 12:36:03;;;;;;;16.65;7.53;;;14.40;55.00;;;;;;5186678;28;20047;-78
2022/03/25 12:38:40;;;;;;;14.40;7.32;;;14.10;54.40;;;;;;5182815;28;20073;-77
2022/03/25 12:41:11;;;;;;;13.13;6.57;;;15.40;56.90;;;;;;5166620;28;20025;-77
2022/03/25 12:43:42;;;;;;;14.27;6.35;;;15.80;56.00;;;;;;5181938;28;20089;-78
2022/03/25 12:46:14;;;;;;;11.18;7.05;;;15.60;55.30;;;;;;5168933;28;20076;-77
2022/03/25 12:48:45;;;;;;;11.60;6.38;;;15.70;55.50;;;;;;5186586;28;20022;-78
2022/03/25 12:51:21;;;;;;;11.02;6.25;;;16.20;56.40;;;;;;5186070;28;20108;-78
2022/03/25 12:53:52;;;;;;;10.05;6.95;;;16.10;53.20;;;;;;5186761;28;20030;-78
2022/03/25 12:56:23;;;;;;;14.63;7.50;;;16.00;54.50;;;;;;5186604;28;20022;-77
2022/03/25 12:58:55;;;;;;;11.30;6.55;;;14.10;54.20;;;;;;5186395;28;20037;-77
2022/03/25 13:01:25;;;;;;;10.77;5.70;;;15.10;54.90;;;;;;5186894;28;20030;-77
2022/03/25 13:03:58;;;;;;;13.90;6.50;;;15.70;56.20;;;;;;5185087;28;20037;-78
2022/03/25 13:06:29;;;;;;;9.07;6.60;;;15.60;55.30;;;;;;5186120;28;20100;-78
2022/03/25 13:09:02;;;;;;;10.57;6.85;;;15.80;54.70;;;;;;5186448;28;20552;-78
2022/03/25 13:11:33;;;;;;;11.80;7.05;;;15.10;52.80;;;;;;5184157;28;20033;-78
2022/03/25 13:14:14;;;;;;;12.57;7.32;;;15.60;55.30;;;;;;5186474;28;20029;-78
2022/03/25 13:16:50;;;;;;;10.25;6.65;;;15.40;54.70;;;;;;5186159;28;20501;-78
2022/03/25 13:19:31;;;;;;;13.30;7.20;;;15.70;55.10;;;;;;5185898;28;20033;-77
2022/03/25 13:22:18;;;;;;;22.15;6.53;;;15.50;54.30;;;;;;5186223;28;20037;-78
2022/03/25 13:24:56;;;;;;;13.07;6.72;;;14.90;53.10;;;;;;5183906;28;20053;-78
2022/03/25 13:27:27;;;;;;;11.55;6.50;;;15.60;55.50;;;;;;5184596;28;20030;-78
2022/03/25 13:29:59;;;;;;;13.05;6.22;;;14.20;51.70;;;;;;5186128;28;20076;-79
2022/03/25 13:32:36;;;;;;;11.10;6.72;;;15.30;54.50;;;;;;5186045;28;20038;-78
2022/03/25 13:35:10;;;;;;;10.93;6.50;;;14.40;52.20;;;;;;5185549;28;20022;-78
2022/03/25 13:37:41;;;;;;;11.05;6.55;;;14.50;55.10;;;;;;5186189;28;20533;-78
2022/03/25 13:40:34;;;;;;;10.05;6.63;;;14.20;52.80;;;;;;5168662;28;20110;-78
2022/03/25 13:43:06;;;;;;;9.30;6.32;;;14.70;54.80;;;;;;5184076;28;20033;-77
2022/03/25 13:45:41;;;;;;;10.77;6.57;;;14.80;53.50;;;;;;5185823;28;20366;-77
2022/03/25 13:48:15;;;;;;;13.43;5.90;;;14.50;54.60;;;;;;5184342;28;20053;-77
2022/03/25 13:50:52;;;;;;;11.52;6.18;;;14.80;54.10;;;;;;5184405;28;20029;-77
2022/03/25 13:53:38;;;;;;;10.38;6.50;;;14.50;53.50;;;;;;5184561;28;20119;-78
2022/03/25 13:56:21;;;;;;;9.70;5.75;;;14.60;54.80;;;;;;5182688;28;20030;-77
2022/03/25 13:58:55;;;;;;;10.23;6.88;;;14.60;54.00;;;;;;5185081;28;20428;-78
2022/03/25 14:01:35;;;;;;;8.43;5.38;;;14.40;54.00;;;;;;5184710;28;20037;-77
2022/03/25 14:04:14;;;;;;;9.07;5.80;;;14.00;54.80;;;;;;5184602;28;20020;-77
2022/03/25 14:06:47;;;;;;;11.55;6.22;;;14.60;54.60;;;;;;5183921;28;20497;-77
2022/03/25 14:09:35;;;;;;;10.90;6.05;;;14.10;57.30;;;;;;5185714;28;20171;-77
2022/03/25 14:12:17;;;;;;;14.57;5.78;;;14.50;57.00;;;;;;5167808;28;20026;-77
2022/03/25 14:14:51;;;;;;;11.32;5.97;;;14.30;56.60;;;;;;5182437;28;20021;-77
2022/03/25 14:17:32;;;;;;;11.02;5.88;;;14.10;58.30;;;;;;5183971;28;20484;-78
2022/03/25 14:20:09;;;;;;;11.15;6.10;;;14.00;58.60;;;;;;5180941;28;20073;-78
2022/03/25 14:22:42;;;;;;;12.70;5.68;;;13.50;55.50;;;;;;5181820;28;20034;-77
2022/03/25 14:25:14;;;;;;;10.82;6.43;;;13.40;56.40;;;;;;5185364;28;20489;-77
2022/03/25 14:27:47;;;;;;;15.32;6.20;;;13.00;57.00;;;;;;5185104;28;20030;-77
2022/03/25 14:30:19;;;;;;;11.93;7.03;;;13.50;59.60;;;;;;5166646;28;20037;-78
2022/03/25 14:32:51;;;;;;;12.25;6.45;;;12.60;54.80;;;;;;5184866;28;20046;-77
2022/03/25 14:35:23;;;;;;;13.63;6.60;;;13.60;58.50;;;;;;5185069;28;20037;-78
2022/03/25 14:37:55;;;;;;;11.15;6.60;;;13.10;55.50;;;;;;5184738;28;20048;-77
2022/03/25 14:40:27;;;;;;;16.00;6.15;;;13.40;57.20;;;;;;5185288;28;20474;-78
2022/03/25 14:42:58;;;;;;;16.70;6.03;;;13.30;56.10;;;;;;5185630;28;20018;-78
2022/03/25 14:45:29;;;;;;;10.02;5.93;;;12.80;57.40;;;;;;5186644;28;20083;-77
2022/03/25 14:47:59;;;;;;;10.25;5.35;;;13.00;56.50;;;;;;5169041;28;20030;-77
2022/03/25 14:50:30;;;;;;;12.40;6.68;;;13.10;57.20;;;;;;5186676;28;20085;-77
2022/03/25 14:53:02;;;;;;;8.70;5.97;;;13.10;56.80;;;;;;5185037;28;20077;-77
2022/03/25 14:55:35;;;;;;;14.65;6.63;;;13.10;58.40;;;;;;5168944;28;20041;-77
2022/03/25 14:58:06;;;;;;;11.38;7.30;;;13.30;60.00;;;;;;5186574;28;20033;-78
2022/03/25 15:00:37;;;;;;;13.70;6.25;;;12.80;57.70;;;;;;5186562;28;20025;-77
2022/03/25 15:03:07;;;;;;;11.15;6.80;;;12.80;58.90;;;;;;5186455;28;20050;-77
2022/03/25 15:05:40;;;;;;;11.27;5.63;;;12.60;59.30;;;;;;5186523;28;20038;-77
2022/03/25 15:08:11;;;;;;;9.32;5.85;;;13.10;61.20;;;;;;5168814;28;20030;-77
2022/03/25 15:10:42;;;;;;;9.88;6.00;;;12.70;59.50;;;;;;5186957;28;20073;-77
2022/03/25 15:13:13;;;;;;;9.57;5.30;;;12.90;60.30;;;;;;5186119;28;20042;-77